Ellis Island, New Jersey
Current Conditions -  °F | °C
As of 6:51 AM on Sunday 23 Nov 2014 (Local Time) from KEWR Reporting Station
Overcast Overcast  
Wind Chill: 37°   Ceiling: 9500
Heat Index: 42°   Visibility: 10mi
Dew Point: 24°   Wind: 8mph
Humidity: 49%   Direction: 230°SW
Pressure: 30.21"   Gusts: NA
Location:  40.696°N, 74.0853°W
Report Text: KEWR 231151Z 23007KT 10SM BKN095 BKN110 OVC150 06/M04 A3021 RMK AO2 SLP228 T00561044 10061 20056 51010
Loading
Personal Weather Stations






























Interactive Weather Map New forecast layout! Learn more

10-Day Weather Forecast

Advertisements
Track Severe Weather on mobile